Dalkey, Ireland

8:13 PM GMT on February 10, 2016 (GMT +0000)
Cherrywood | | Change Station
CLOSE
Current Station
Personal Weather Station
Location: Loughlinstown, DUBLIN
Elevation: 92 ft
Nearby Weather Stations

Elev 92 ft 53.25 °N, 6.13 °W | Updated 14 minutes ago

Scattered Clouds
Scattered Clouds
34.7 °F
Feels Like 35 °F
N
0.0
Wind Variable Wind from West
Gusts 1.0 mph

Today
High -- | Low -- °F
--% Chance of Precip.
Yesterday
High -- | Low -- °F
Precip. -- in
Pressure 29.59 in
Visibility 6.2 miles
Clouds Few 1700 ft
Scattered Clouds 4000 ft
Windchill 35 °F
Dew Point 32 °F
Humidity 88%
Rainfall 0.00 in
Snow Depth Not available.
7:53 AM 5:24 PM
Waxing Crescent, 7% visible
METAR EIDW 102000Z 25005KT 9999 FEW017 SCT040 01/M01 Q1002 NOSIG
Pressure 29.59 in
Visibility 6.2 miles
Clouds Few 1700 ft
Scattered Clouds 4000 ft
Windchill 35 °F
Dew Point 32 °F
Humidity 88%
Rainfall 0.00 in
Snow Depth Not available.
7:53 AM 5:24 PM
Waxing Crescent, 7% visible
METAR EIDW 102000Z 25005KT 9999 FEW017 SCT040 01/M01 Q1002 NOSIG

10-Day Weather Forecast

Almanac

Astronomy

Feb. 10, 2016 Rise Set
Actual Time
Civil Twilight
Nautical Twilight
Astronomical Twilight
Moon
Length of Visible Light
Length of Day
Tomorrow will be .
, % of the Moon is Illuminated

Today's Extremes

Country Highs Country Lows

Community

WunderPhotos

Upload Photos

1,891,933 photos uploaded!

WunderBlog® & News

Nearby

Air Quality

  Air Quality AQ Index Pollutant
Not available.

Snow Depth

Station Depth Elevation

Earthquake Activity

City Distance Mag. Time & Date
Minimum magnitude displayed is 2.5.

Coastal Water Temperatures

Place Temperature

Stations

Nearby Weather Stations

Station Location Temp. Windchill Dew Point Humidity Wind Precip. Elev Updated Type